createdAt,value
2023-04-25T00:01:27.113Z,2.60
2023-04-25T00:04:16.887Z,2.33
2023-04-25T00:07:06.877Z,2.50
2023-04-25T00:09:56.152Z,2.33
2023-04-25T00:12:45.448Z,2.38
2023-04-25T00:15:34.719Z,2.30
2023-04-25T00:18:24.957Z,2.33
2023-04-25T00:21:14.539Z,2.30
2023-04-25T00:24:03.990Z,2.40
2023-04-25T00:26:53.217Z,2.40
2023-04-25T00:29:42.592Z,2.30
2023-04-25T00:32:32.118Z,2.30
2023-04-25T00:35:21.942Z,2.40
2023-04-25T00:38:11.223Z,2.45
2023-04-25T00:41:00.548Z,2.20
2023-04-25T00:43:51.315Z,2.30
2023-04-25T00:46:42.303Z,2.40
2023-04-25T00:49:31.755Z,2.40
2023-04-25T00:52:21.839Z,2.25
2023-04-25T00:55:12.170Z,2.30
2023-04-25T00:58:01.462Z,1.80
2023-04-25T01:00:53.911Z,2.10
2023-04-25T01:06:32.986Z,2.00
2023-04-25T01:09:23.267Z,2.15
2023-04-25T01:12:13.288Z,2.30
2023-04-25T01:15:02.827Z,2.30
2023-04-25T01:17:52.192Z,2.50
2023-04-25T01:20:43.889Z,2.20
2023-04-25T01:23:35.356Z,2.10
2023-04-25T01:26:25.395Z,2.22
2023-04-25T01:29:14.731Z,2.33
2023-04-25T01:32:04.455Z,2.20
2023-04-25T01:34:53.986Z,2.25
2023-04-25T01:37:44.695Z,2.30
2023-04-25T01:40:36.728Z,2.30
2023-04-25T01:43:26.239Z,2.28
2023-04-25T01:46:16.374Z,2.17
2023-04-25T01:49:06.656Z,2.20
2023-04-25T01:51:56.194Z,2.20
2023-04-25T01:54:46.785Z,2.20
2023-04-25T01:57:37.684Z,2.30
2023-04-25T02:00:27.426Z,2.40
2023-04-25T02:03:17.117Z,2.42
2023-04-25T02:06:07.241Z,2.30
2023-04-25T02:09:00.216Z,2.13
2023-04-25T02:11:49.557Z,2.28
2023-04-25T02:14:51.156Z,2.00
2023-04-25T02:17:49.214Z,2.08
2023-04-25T02:20:38.613Z,2.30
2023-04-25T02:23:28.212Z,1.80
2023-04-25T02:26:17.490Z,2.00
2023-04-25T02:29:06.926Z,2.15
2023-04-25T02:31:56.623Z,2.10
2023-04-25T02:34:46.008Z,2.20
2023-04-25T02:37:37.098Z,2.03
2023-04-25T02:40:26.464Z,2.45
2023-04-25T02:43:18.165Z,2.00
2023-04-25T02:46:07.433Z,1.90
2023-04-25T02:48:56.758Z,2.20
2023-04-25T02:51:46.157Z,2.38
2023-04-25T02:54:35.517Z,2.15
2023-04-25T02:57:25.749Z,2.15
2023-04-25T03:00:16.357Z,2.35
2023-04-25T03:03:05.789Z,2.40
2023-04-25T03:05:55.222Z,2.33
2023-04-25T03:08:49.052Z,2.33
2023-04-25T03:11:41.114Z,2.30
2023-04-25T03:14:30.405Z,2.38
2023-04-25T03:17:19.759Z,2.40
2023-04-25T03:20:10.458Z,2.17
2023-04-25T03:22:59.774Z,2.28
2023-04-25T03:25:51.859Z,2.30
2023-04-25T03:28:42.143Z,2.50
2023-04-25T03:31:31.723Z,2.10
2023-04-25T03:34:23.436Z,2.33
2023-04-25T03:37:13.081Z,2.40
2023-04-25T03:40:04.450Z,2.58
2023-04-25T03:43:13.630Z,2.10
2023-04-25T03:46:09.268Z,2.90
2023-04-25T03:48:58.558Z,2.10
2023-04-25T03:51:55.968Z,2.30
2023-04-25T03:54:45.889Z,2.20
2023-04-25T03:57:41.216Z,2.15
2023-04-25T04:00:30.843Z,2.53
2023-04-25T04:03:20.791Z,2.58
2023-04-25T04:06:11.153Z,2.45
2023-04-25T04:09:04.576Z,2.30
2023-04-25T04:11:58.383Z,2.30
2023-04-25T04:14:47.852Z,2.20
2023-04-25T04:17:37.687Z,2.50
2023-04-25T04:20:27.168Z,2.25
2023-04-25T04:23:17.000Z,2.22
2023-04-25T04:26:07.139Z,2.20
2023-04-25T04:29:07.203Z,2.80
2023-04-25T04:32:08.267Z,2.63
2023-04-25T04:34:59.286Z,2.60
2023-04-25T04:37:51.079Z,2.40
2023-04-25T04:43:36.009Z,2.42
2023-04-25T04:46:44.659Z,2.83
2023-04-25T04:49:56.923Z,2.75
2023-04-25T04:52:54.750Z,2.70
2023-04-25T04:56:07.392Z,2.70
2023-04-25T04:59:35.127Z,2.90
2023-04-25T05:02:44.617Z,2.80
2023-04-25T05:05:53.093Z,2.58
2023-04-25T05:08:42.506Z,2.50
2023-04-25T05:11:51.854Z,2.60
2023-04-25T05:14:59.202Z,2.60
2023-04-25T05:18:00.795Z,2.80
2023-04-25T05:21:05.724Z,2.70
2023-04-25T05:24:10.431Z,2.72
2023-04-25T05:27:20.700Z,2.75
2023-04-25T05:30:24.723Z,2.55
2023-04-25T05:33:33.520Z,2.85
2023-04-25T05:36:24.346Z,2.80
2023-04-25T05:39:14.273Z,3.00
2023-04-25T05:42:26.292Z,2.70
2023-04-25T05:45:30.497Z,2.95
2023-04-25T05:48:46.142Z,2.83
2023-04-25T05:51:59.474Z,2.95
2023-04-25T05:54:58.678Z,2.70
2023-04-25T05:57:48.586Z,2.80
2023-04-25T06:00:40.387Z,2.70
2023-04-25T06:03:30.018Z,2.97
2023-04-25T06:06:21.026Z,3.00
2023-04-25T06:09:10.590Z,2.70
2023-04-25T06:12:00.780Z,2.88
2023-04-25T06:14:50.155Z,2.92
2023-04-25T06:17:39.464Z,3.10
2023-04-25T06:20:29.078Z,2.90
2023-04-25T06:23:21.213Z,2.70
2023-04-25T06:26:22.581Z,3.08
2023-04-25T06:29:12.578Z,2.88
2023-04-25T06:32:01.816Z,2.80
2023-04-25T06:34:52.841Z,2.90
2023-04-25T06:37:42.620Z,3.00
2023-04-25T06:40:31.979Z,2.97
2023-04-25T06:43:21.508Z,2.90
2023-04-25T06:46:25.514Z,3.10
2023-04-25T06:49:14.802Z,3.03
2023-04-25T06:52:04.688Z,2.92
2023-04-25T06:54:53.908Z,3.20
2023-04-25T06:58:12.155Z,3.17
2023-04-25T07:01:23.330Z,2.90
2023-04-25T07:04:13.032Z,2.95
2023-04-25T07:07:07.781Z,3.25
2023-04-25T07:10:07.780Z,2.90
2023-04-25T07:12:57.433Z,3.10
2023-04-25T07:15:46.967Z,3.30
2023-04-25T07:18:36.719Z,3.10
2023-04-25T07:21:26.395Z,3.22
2023-04-25T07:24:15.929Z,3.03
2023-04-25T07:27:08.695Z,3.13
2023-04-25T07:30:21.322Z,3.05
2023-04-25T07:33:11.076Z,3.35
2023-04-25T07:36:00.444Z,3.28
2023-04-25T07:38:50.474Z,3.72
2023-04-25T07:41:39.855Z,3.60
2023-04-25T07:44:32.958Z,3.45
2023-04-25T07:47:22.300Z,3.35
2023-04-25T07:50:13.071Z,3.50
2023-04-25T07:53:02.474Z,3.42
2023-04-25T07:55:58.439Z,3.67
2023-04-25T07:58:47.758Z,3.50
2023-04-25T08:01:39.249Z,3.47
2023-04-25T08:04:30.024Z,3.47
2023-04-25T08:07:28.696Z,3.20
2023-04-25T08:10:25.089Z,3.55
2023-04-25T08:13:14.366Z,3.30
2023-04-25T08:16:03.793Z,3.30
2023-04-25T08:18:53.715Z,3.70
2023-04-25T08:21:43.451Z,4.03
2023-04-25T08:24:39.473Z,3.65
2023-04-25T08:27:31.151Z,3.88
2023-04-25T08:30:21.175Z,3.70
2023-04-25T08:33:10.605Z,3.30
2023-04-25T08:36:31.558Z,3.72
2023-04-25T08:39:29.153Z,3.88
2023-04-25T08:42:49.385Z,3.72
2023-04-25T08:45:40.904Z,3.78
2023-04-25T08:48:31.257Z,3.67
2023-04-25T08:51:26.991Z,3.90
2023-04-25T08:54:30.679Z,3.53
2023-04-25T08:57:26.650Z,3.75
2023-04-25T09:00:16.343Z,3.60
2023-04-25T09:03:07.881Z,3.92
2023-04-25T09:05:58.262Z,4.00
2023-04-25T09:08:47.733Z,3.60
2023-04-25T09:11:38.615Z,3.67
2023-04-25T09:14:31.897Z,3.70
2023-04-25T09:17:33.233Z,4.15
2023-04-25T09:20:23.563Z,3.65
2023-04-25T09:23:12.966Z,4.45
2023-04-25T09:26:02.737Z,3.80
2023-04-25T09:29:06.888Z,4.03
2023-04-25T09:32:14.962Z,3.88
2023-04-25T09:35:06.676Z,3.60
2023-04-25T09:37:56.663Z,3.80
2023-04-25T09:41:15.162Z,3.53
2023-04-25T09:47:01.210Z,3.60
2023-04-25T09:49:53.015Z,4.00
2023-04-25T09:52:43.790Z,4.10
2023-04-25T09:55:40.440Z,4.15
2023-04-25T09:58:33.315Z,4.05
2023-04-25T10:01:25.168Z,4.00
2023-04-25T10:04:32.176Z,3.88
2023-04-25T10:07:33.106Z,3.97
2023-04-25T10:10:28.436Z,3.90
2023-04-25T10:13:19.122Z,4.18
2023-04-25T10:16:08.486Z,3.90
2023-04-25T10:18:58.861Z,4.20
2023-04-25T10:22:05.195Z,4.00
2023-04-25T10:24:54.867Z,4.00
2023-04-25T10:27:44.410Z,4.00
2023-04-25T10:30:33.701Z,3.72
2023-04-25T10:33:35.255Z,4.00
2023-04-25T10:36:25.684Z,3.60
2023-04-25T10:39:14.907Z,4.20
2023-04-25T10:42:05.354Z,3.88
2023-04-25T10:45:06.751Z,4.00
2023-04-25T10:47:57.598Z,4.00
2023-04-25T10:50:47.220Z,4.18
2023-04-25T10:53:36.871Z,4.05
2023-04-25T10:56:28.968Z,4.20
2023-04-25T10:59:20.357Z,3.50
2023-04-25T11:02:15.550Z,4.03
2023-04-25T11:05:05.567Z,3.90
2023-04-25T11:08:07.944Z,4.38
2023-04-25T11:10:57.907Z,3.95
2023-04-25T11:13:51.565Z,4.30
2023-04-25T11:16:41.184Z,4.10
2023-04-25T11:19:31.619Z,4.18
2023-04-25T11:22:20.931Z,4.25
2023-04-25T11:25:12.473Z,4.13
2023-04-25T11:28:03.201Z,4.20
2023-04-25T11:30:52.584Z,4.40
2023-04-25T11:33:42.920Z,4.07
2023-04-25T11:36:32.917Z,4.13
2023-04-25T11:39:22.878Z,3.92
2023-04-25T11:42:13.901Z,4.00
2023-04-25T11:45:03.559Z,4.20
2023-04-25T11:47:52.959Z,4.45
2023-04-25T11:50:45.318Z,4.40
2023-04-25T11:53:34.600Z,3.95
2023-04-25T11:56:24.638Z,4.00
2023-04-25T11:59:14.847Z,4.00
2023-04-25T12:02:04.087Z,4.45
2023-04-25T12:04:53.755Z,3.90
2023-04-25T12:07:43.242Z,4.10
2023-04-25T12:10:32.507Z,4.30
2023-04-25T12:13:27.899Z,3.28
2023-04-25T12:16:17.264Z,4.00
2023-04-25T12:19:06.953Z,3.63
2023-04-25T12:21:59.151Z,4.07
2023-04-25T12:24:48.909Z,3.53
2023-04-25T12:27:46.079Z,3.75
2023-04-25T12:30:58.449Z,3.88
2023-04-25T12:33:49.969Z,3.67
2023-04-25T12:36:39.378Z,4.15
2023-04-25T12:39:28.607Z,3.92
2023-04-25T12:42:17.902Z,4.20
2023-04-25T12:45:07.573Z,3.40
2023-04-25T12:47:57.014Z,3.97
2023-04-25T12:50:46.997Z,3.80
2023-04-25T12:53:39.531Z,3.60
2023-04-25T12:56:29.615Z,3.70
2023-04-25T12:59:18.924Z,3.75
2023-04-25T13:02:08.335Z,3.63
2023-04-25T13:04:57.643Z,3.70
2023-04-25T13:07:47.151Z,4.13
2023-04-25T13:10:37.991Z,3.67
2023-04-25T13:13:29.328Z,4.18
2023-04-25T13:16:18.911Z,3.70
2023-04-25T13:19:09.919Z,3.90
2023-04-25T13:21:59.224Z,3.30
2023-04-25T13:24:49.055Z,3.72
2023-04-25T13:27:40.378Z,3.80
2023-04-25T13:30:29.729Z,3.33
2023-04-25T13:33:19.152Z,4.28
2023-04-25T13:36:08.657Z,3.85
2023-04-25T13:38:57.964Z,3.47
2023-04-25T13:41:47.150Z,3.05
2023-04-25T13:44:36.442Z,3.42
2023-04-25T13:47:25.812Z,3.30
2023-04-25T13:50:15.740Z,3.60
2023-04-25T13:53:05.040Z,3.08
2023-04-25T13:55:54.537Z,4.22
2023-04-25T13:58:44.079Z,3.13
2023-04-25T14:01:36.159Z,3.17
2023-04-25T14:04:25.567Z,3.13
2023-04-25T14:07:14.938Z,3.28
2023-04-25T14:10:04.635Z,3.28
2023-04-25T14:12:53.887Z,3.30
2023-04-25T14:15:43.245Z,3.28
2023-04-25T14:18:32.564Z,3.10
2023-04-25T14:21:23.047Z,3.25
2023-04-25T14:24:15.384Z,3.25
2023-04-25T14:27:04.690Z,3.00
2023-04-25T14:29:56.705Z,3.13
2023-04-25T14:32:46.944Z,3.53
2023-04-25T14:35:37.276Z,3.20
2023-04-25T14:38:27.637Z,3.25
2023-04-25T14:41:16.846Z,2.97
2023-04-25T14:44:06.115Z,3.20
2023-04-25T14:46:55.397Z,3.10
2023-04-25T14:49:44.843Z,3.33
2023-04-25T14:52:34.193Z,3.25
2023-04-25T14:55:23.605Z,3.42
2023-04-25T14:58:12.871Z,3.30
2023-04-25T15:01:02.978Z,3.30
2023-04-25T15:03:53.451Z,3.10
2023-04-25T15:06:46.178Z,3.17
2023-04-25T15:09:35.428Z,3.28
2023-04-25T15:12:25.159Z,3.15
2023-04-25T15:15:22.606Z,3.20
2023-04-25T15:18:15.991Z,3.30
2023-04-25T15:21:06.231Z,3.15
2023-04-25T15:23:55.537Z,3.28
2023-04-25T15:26:45.002Z,3.03
2023-04-25T15:29:34.174Z,2.70
2023-04-25T15:32:24.693Z,3.20
2023-04-25T15:35:14.862Z,3.20
2023-04-25T15:38:04.131Z,3.15
2023-04-25T15:40:54.987Z,3.30
2023-04-25T15:43:44.261Z,3.30
2023-04-25T15:46:33.664Z,3.55
2023-04-25T15:49:23.531Z,3.00
2023-04-25T15:52:12.950Z,3.10
2023-04-25T15:55:02.603Z,2.97
2023-04-25T15:57:52.506Z,2.92
2023-04-25T16:00:41.815Z,3.28
2023-04-25T16:03:32.853Z,3.08
2023-04-25T16:06:23.694Z,2.60
2023-04-25T16:09:13.275Z,2.65
2023-04-25T16:12:02.792Z,2.80
2023-04-25T16:14:52.170Z,3.30
2023-04-25T16:17:41.497Z,3.00
2023-04-25T16:20:30.858Z,2.97
2023-04-25T16:23:20.496Z,3.00
2023-04-25T16:26:10.038Z,2.95
2023-04-25T16:28:59.292Z,3.20
2023-04-25T16:31:48.691Z,3.03
2023-04-25T16:34:38.035Z,2.60
2023-04-25T16:37:27.980Z,2.65
2023-04-25T16:40:17.266Z,2.65
2023-04-25T16:43:06.668Z,2.70
2023-04-25T16:45:55.978Z,3.10
2023-04-25T16:48:45.370Z,2.90
2023-04-25T16:51:34.799Z,2.88
2023-04-25T16:54:26.498Z,2.60
2023-04-25T16:57:15.798Z,2.92
2023-04-25T17:00:06.979Z,3.03
2023-04-25T17:02:56.321Z,2.60
2023-04-25T17:05:45.658Z,3.03
2023-04-25T17:08:34.885Z,2.80
2023-04-25T17:11:24.109Z,2.90
2023-04-25T17:14:13.322Z,3.10
2023-04-25T17:17:03.419Z,3.10
2023-04-25T17:19:53.158Z,2.70
2023-04-25T17:22:42.675Z,2.70
2023-04-25T17:25:32.583Z,2.90
2023-04-25T17:28:21.877Z,3.08
2023-04-25T17:31:11.260Z,2.80
2023-04-25T17:34:01.015Z,2.50
2023-04-25T17:36:50.300Z,2.92
2023-04-25T17:39:39.527Z,2.70
2023-04-25T17:42:29.364Z,3.30
2023-04-25T17:45:18.681Z,2.80
2023-04-25T17:48:07.987Z,2.70
2023-04-25T17:50:57.676Z,2.75
2023-04-25T17:53:46.912Z,2.72
2023-04-25T17:56:39.231Z,2.78
2023-04-25T17:59:29.138Z,2.40
2023-04-25T18:02:19.035Z,2.60
2023-04-25T18:05:11.829Z,2.40
2023-04-25T18:08:01.480Z,3.15
2023-04-25T18:10:50.884Z,2.60
2023-04-25T18:13:40.442Z,2.83
2023-04-25T18:16:30.395Z,2.72
2023-04-25T18:19:22.812Z,2.90
2023-04-25T18:22:13.942Z,2.55
2023-04-25T18:25:05.664Z,2.40
2023-04-25T18:27:54.942Z,2.70
2023-04-25T18:30:45.515Z,2.60
2023-04-25T18:33:34.839Z,2.80
2023-04-25T18:36:24.102Z,2.65
2023-04-25T18:39:21.935Z,2.53
2023-04-25T18:42:12.225Z,2.78
2023-04-25T18:45:01.516Z,2.70
2023-04-25T18:47:50.893Z,2.65
2023-04-25T18:50:40.239Z,2.58
2023-04-25T18:53:29.894Z,2.80
2023-04-25T18:56:21.992Z,2.47
2023-04-25T18:59:12.238Z,2.58
2023-04-25T19:02:06.120Z,2.40
2023-04-25T19:04:55.357Z,2.55
2023-04-25T19:07:46.067Z,2.70
2023-04-25T19:10:35.558Z,2.90
2023-04-25T19:13:24.916Z,2.50
2023-04-25T19:16:14.746Z,2.60
2023-04-25T19:19:04.002Z,2.72
2023-04-25T19:21:53.586Z,2.30
2023-04-25T19:24:42.848Z,2.55
2023-04-25T19:27:32.147Z,2.50
2023-04-25T19:30:21.455Z,2.50
2023-04-25T19:33:10.782Z,2.33
2023-04-25T19:36:00.036Z,2.47
2023-04-25T19:38:49.279Z,2.40
2023-04-25T19:41:40.008Z,2.47
2023-04-25T19:44:29.438Z,2.40
2023-04-25T19:47:18.945Z,2.50
2023-04-25T19:50:10.538Z,2.85
2023-04-25T19:52:59.756Z,2.28
2023-04-25T19:55:48.999Z,2.40
2023-04-25T19:58:38.647Z,2.60
2023-04-25T20:01:28.223Z,2.47
2023-04-25T20:04:19.283Z,2.63
2023-04-25T20:07:08.635Z,2.42
2023-04-25T20:09:58.386Z,2.92
2023-04-25T20:12:47.725Z,2.70
2023-04-25T20:15:37.368Z,2.28
2023-04-25T20:18:27.307Z,2.30
2023-04-25T20:21:18.075Z,1.98
2023-04-25T20:24:07.975Z,2.20
2023-04-25T20:27:00.328Z,2.20
2023-04-25T20:29:49.645Z,2.20
2023-04-25T20:32:39.332Z,2.60
2023-04-25T20:35:29.099Z,2.20
2023-04-25T20:38:18.438Z,2.40
2023-04-25T20:41:08.059Z,2.30
2023-04-25T20:43:57.960Z,2.45
2023-04-25T20:46:47.603Z,2.50
2023-04-25T20:49:37.572Z,2.35
2023-04-25T20:52:26.928Z,2.50
2023-04-25T20:55:16.294Z,2.40
2023-04-25T20:58:05.721Z,2.50
2023-04-25T21:00:57.397Z,2.20
2023-04-25T21:03:49.763Z,2.25
2023-04-25T21:06:39.160Z,2.20
2023-04-25T21:09:28.425Z,2.35
2023-04-25T21:12:17.712Z,2.28
2023-04-25T21:15:07.370Z,2.30
2023-04-25T21:17:56.632Z,2.40
2023-04-25T21:20:45.951Z,2.30
2023-04-25T21:23:35.311Z,2.40
2023-04-25T21:26:24.651Z,2.50
2023-04-25T21:29:13.949Z,2.35
2023-04-25T21:32:03.356Z,2.20
2023-04-25T21:34:52.560Z,2.30
2023-04-25T21:37:42.573Z,2.33
2023-04-25T21:40:34.306Z,2.20
2023-04-25T21:43:23.959Z,2.22
2023-04-25T21:46:22.221Z,2.20
2023-04-25T21:49:14.083Z,2.33
2023-04-25T21:52:04.024Z,2.35
2023-04-25T21:54:53.494Z,2.00
2023-04-25T21:57:42.788Z,2.00
2023-04-25T22:00:33.100Z,2.47
2023-04-25T22:03:22.569Z,2.17
2023-04-25T22:06:12.145Z,2.15
2023-04-25T22:09:01.384Z,2.17
2023-04-25T22:11:54.298Z,2.20
2023-04-25T22:14:45.787Z,1.90
2023-04-25T22:17:35.141Z,2.20
2023-04-25T22:20:27.107Z,2.25
2023-04-25T22:23:16.422Z,2.50
2023-04-25T22:26:06.464Z,2.42
2023-04-25T22:28:55.711Z,2.75
2023-04-25T22:31:45.078Z,2.40
2023-04-25T22:34:34.632Z,2.25
2023-04-25T22:37:24.404Z,2.28
2023-04-25T22:40:14.604Z,2.45
2023-04-25T22:43:04.147Z,2.58
2023-04-25T22:45:53.649Z,2.30
2023-04-25T22:48:42.895Z,2.40
2023-04-25T22:51:32.357Z,2.22
2023-04-25T22:54:21.569Z,2.90
2023-04-25T22:57:11.774Z,2.60
2023-04-25T23:00:01.011Z,2.80
2023-04-25T23:02:51.386Z,2.35
2023-04-25T23:05:40.779Z,2.40
2023-04-25T23:08:30.150Z,2.78
2023-04-25T23:11:21.388Z,2.72
2023-04-25T23:14:10.300Z,2.50
2023-04-25T23:16:59.533Z,2.40
2023-04-25T23:19:49.430Z,2.55
2023-04-25T23:22:39.306Z,2.20
2023-04-25T23:25:29.387Z,2.58
2023-04-25T23:28:18.828Z,2.40
2023-04-25T23:31:09.461Z,2.00
2023-04-25T23:33:58.810Z,2.30
2023-04-25T23:36:48.002Z,2.60
2023-04-25T23:39:37.228Z,2.30
2023-04-25T23:42:26.664Z,2.60
2023-04-25T23:45:17.485Z,2.40
2023-04-25T23:48:07.355Z,2.30
2023-04-25T23:50:57.264Z,2.22
2023-04-25T23:53:46.745Z,2.67
2023-04-25T23:56:36.001Z,2.53
2023-04-25T23:59:25.442Z,2.20
